Terminal Aerodrome Forecast
Issued by NWS

Home | Current Version | Previous Version | Text Only | Print | Product List | Glossary On
Versions: 1 2 3 4 5 6 7 8 9 10 11 12 13 14 15 16 17 18 19 20 21 22 23 24 25 26 27 28 29
000
FTUS42 KJAX 280713 AAA
TAFVQQ
TAF AMD
KVQQ 280713Z 2807/2906 10005KT P6SM VCSH SCT020 OVC100
      TEMPO 2807/2810 BKN020
     FM281300 08008KT 5SM -SHRA SCT015 BKN025 OVC060
     FM281600 09011G18KT P6SM VCSH SCT030 BKN060 OVC200
     FM290300 12006KT P6SM VCSH SCT020 SCT060 BKN200=

USA.gov is the U.S. government's official web portal to all federal, state and local government web resources and services.